Time,TemperatureF,DewpointF,PressureIn,WindDirection,WindDirectionDegrees,WindSpeedMPH,WindSpeedGustMPH,Humidity,HourlyPrecipIn,Conditions,Clouds,dailyrainin,SoftwareType,DateUTC
2013-06-17 00:30:00,77.2,71.6,28.77,WSW,248,2.5,2.5,83,0.00,,,0.00,WUHU216HW,2013-06-17 05:30:00,
2013-06-17 00:35:00,77.2,71.6,28.77,WSW,248,2.5,2.5,83,0.00,,,0.00,WUHU216HW,2013-06-17 05:35:00,
2013-06-17 01:00:00,76.9,71.3,28.74,SW,225,4.9,4.9,83,0.00,,,0.00,WUHU216HW,2013-06-17 06:00:00,
2013-06-17 01:05:00,76.9,71.3,28.74,SW,225,4.9,4.9,83,0.00,,,0.00,WUHU216HW,2013-06-17 06:05:00,
2013-06-17 01:30:00,75.4,69.6,28.73,SE,135,1.8,1.8,82,0.00,,,0.00,WUHU216HW,2013-06-17 06:30:00,
2013-06-17 01:35:00,75.4,69.6,28.73,SE,135,1.8,1.8,82,0.00,,,0.00,WUHU216HW,2013-06-17 06:35:00,
2013-06-17 02:00:00,74.9,69.1,28.75,SW,225,1.8,1.8,82,0.00,,,0.00,WUHU216HW,2013-06-17 07:00:00,
2013-06-17 02:05:00,74.9,69.1,28.75,SW,225,1.8,1.8,82,0.00,,,0.00,WUHU216HW,2013-06-17 07:05:00,
2013-06-17 02:30:00,74.5,68.4,28.75,SSE,158,1.1,1.1,81,0.00,,,0.00,WUHU216HW,2013-06-17 07:30:00,
2013-06-17 02:35:00,74.5,68.4,28.75,SSE,158,1.1,1.1,81,0.00,,,0.00,WUHU216HW,2013-06-17 07:35:00,
2013-06-17 03:30:00,65.2,62.8,28.87,East,90,3.6,3.6,92,1.20,,,0.00,WUHU216HW,2013-06-17 08:30:00,
2013-06-17 03:35:00,65.2,62.8,28.87,East,90,3.6,3.6,92,1.20,,,0.00,WUHU216HW,2013-06-17 08:35:00,
2013-06-17 04:00:00,64.8,62.5,28.86,ENE,68,2.7,2.7,92,1.38,,,1.20,WUHU216HW,2013-06-17 09:00:00,
2013-06-17 04:05:00,64.8,62.5,28.86,ENE,68,2.7,2.7,92,1.38,,,1.20,WUHU216HW,2013-06-17 09:05:00,
2013-06-17 04:30:00,64.8,62.5,28.87,NW,315,0.4,0.4,92,0.28,,,1.43,WUHU216HW,2013-06-17 09:30:00,
2013-06-17 04:35:00,64.8,62.5,28.87,NW,315,0.4,0.4,92,0.28,,,1.43,WUHU216HW,2013-06-17 09:35:00,
2013-06-17 05:00:00,64.4,62.5,28.80,East,90,0.4,0.4,93,0.12,,,1.48,WUHU216HW,2013-06-17 10:00:00,
2013-06-17 05:05:00,64.4,62.5,28.80,East,90,0.4,0.4,93,0.12,,,1.48,WUHU216HW,2013-06-17 10:05:00,
2013-06-17 05:30:00,64.8,62.5,28.80,WSW,248,1.1,1.1,92,0.12,,,1.57,WUHU216HW,2013-06-17 10:30:00,
2013-06-17 05:35:00,64.8,62.5,28.80,WSW,248,1.1,1.1,92,0.12,,,1.57,WUHU216HW,2013-06-17 10:35:00,
2013-06-17 06:00:00,65.2,62.8,28.78,WSW,248,0.4,0.4,92,0.07,,,1.61,WUHU216HW,2013-06-17 11:00:00,
2013-06-17 06:05:00,65.2,62.8,28.78,WSW,248,0.4,0.4,92,0.07,,,1.61,WUHU216HW,2013-06-17 11:05:00,
2013-06-17 06:30:00,65.7,63.3,28.77,WSW,248,2.2,2.2,92,0.08,,,1.64,WUHU216HW,2013-06-17 11:30:00,
2013-06-17 06:35:00,65.7,63.3,28.77,WSW,248,2.2,2.2,92,0.08,,,1.64,WUHU216HW,2013-06-17 11:35:00,
2013-06-17 07:00:00,65.5,63.1,28.72,South,180,4.7,4.7,92,0.06,,,1.70,WUHU216HW,2013-06-17 12:00:00,
2013-06-17 07:05:00,65.5,63.1,28.72,South,180,4.7,4.7,92,0.06,,,1.70,WUHU216HW,2013-06-17 12:05:00,
2013-06-17 07:30:00,65.2,62.8,28.68,NW,315,2.5,2.5,92,0.00,,,1.70,WUHU216HW,2013-06-17 12:30:00,
2013-06-17 07:35:00,65.2,62.8,28.68,NW,315,2.5,2.5,92,0.00,,,1.70,WUHU216HW,2013-06-17 12:35:00,
2013-06-17 08:00:00,66.8,64.6,28.76,WSW,248,0.9,0.9,93,0.00,,,1.70,WUHU216HW,2013-06-17 13:00:00,
2013-06-17 08:05:00,66.8,64.6,28.76,WSW,248,0.9,0.9,93,0.00,,,1.70,WUHU216HW,2013-06-17 13:05:00,
2013-06-17 08:30:00,68.4,66.0,28.78,WSW,248,3.8,3.8,92,0.00,,,1.70,WUHU216HW,2013-06-17 13:30:00,
2013-06-17 08:35:00,68.4,66.0,28.78,WSW,248,3.8,3.8,92,0.00,,,1.70,WUHU216HW,2013-06-17 13:35:00,
2013-06-17 09:00:00,71.8,68.8,28.80,WNW,293,1.1,1.1,90,0.00,,,1.70,WUHU216HW,2013-06-17 14:00:00,
2013-06-17 09:05:00,71.8,68.8,28.80,WNW,293,1.1,1.1,90,0.00,,,1.70,WUHU216HW,2013-06-17 14:05:00,
2013-06-17 09:30:00,74.3,67.9,28.81,NW,315,4.0,4.0,80,0.00,,,1.70,WUHU216HW,2013-06-17 14:30:00,
2013-06-17 09:35:00,74.3,67.9,28.81,NW,315,4.0,4.0,80,0.00,,,1.70,WUHU216HW,2013-06-17 14:35:00,
2013-06-17 10:00:00,73.8,66.6,28.82,WNW,293,4.7,4.7,78,0.00,,,1.70,WUHU216HW,2013-06-17 15:00:00,
2013-06-17 10:05:00,73.8,66.6,28.82,WNW,293,4.7,4.7,78,0.00,,,1.70,WUHU216HW,2013-06-17 15:05:00,
2013-06-17 10:29:00,74.5,66.9,28.83,NNW,338,3.1,3.1,77,0.00,,,1.70,WUHU216HW,2013-06-17 15:29:00,
2013-06-17 10:30:00,74.5,66.9,28.83,NNW,338,3.1,3.1,77,0.00,,,1.70,WUHU216HW,2013-06-17 15:30:00,
2013-06-17 10:35:00,74.5,66.9,28.83,NNW,338,3.1,3.1,77,0.00,,,1.70,WUHU216HW,2013-06-17 15:35:00,
2013-06-17 11:00:00,75.1,66.6,28.84,North,0,6.9,6.9,75,0.00,,,1.70,WUHU216HW,2013-06-17 16:00:00,
2013-06-17 11:05:00,75.1,66.6,28.84,North,0,6.9,6.9,75,0.00,,,1.70,WUHU216HW,2013-06-17 16:05:00,
2013-06-17 11:30:00,76.0,67.1,28.85,NNW,338,1.8,1.8,74,0.00,,,1.70,WUHU216HW,2013-06-17 16:30:00,
2013-06-17 11:31:00,76.0,67.1,28.85,NNW,338,1.8,1.8,74,0.00,,,1.70,WUHU216HW,2013-06-17 16:31:00,
2013-06-17 11:36:00,76.0,67.1,28.85,NNW,338,1.8,1.8,74,0.00,,,1.70,WUHU216HW,2013-06-17 16:36:00,
2013-06-17 12:00:00,76.1,66.9,28.85,NNW,338,3.4,3.4,73,0.00,,,1.70,WUHU216HW,2013-06-17 17:00:00,
2013-06-17 12:01:00,76.1,66.9,28.85,NNW,338,3.4,3.4,73,0.00,,,1.70,WUHU216HW,2013-06-17 17:01:00,
2013-06-17 12:06:00,76.1,66.9,28.85,NNW,338,3.4,3.4,73,0.00,,,1.70,WUHU216HW,2013-06-17 17:06:00,
2013-06-17 12:30:00,77.4,67.0,28.85,NNE,23,2.5,2.5,70,0.00,,,1.70,WUHU216HW,2013-06-17 17:30:00,
2013-06-17 12:31:00,77.4,67.0,28.85,NNE,23,2.5,2.5,70,0.00,,,1.70,WUHU216HW,2013-06-17 17:31:00,
2013-06-17 12:36:00,77.4,67.0,28.85,NNE,23,2.5,2.5,70,0.00,,,1.70,WUHU216HW,2013-06-17 17:36:00,
2013-06-17 13:00:00,77.4,66.5,28.84,NNE,23,3.4,3.4,69,0.00,,,1.70,WUHU216HW,2013-06-17 18:00:00,
2013-06-17 13:01:00,77.4,66.5,28.84,NNE,23,3.4,3.4,69,0.00,,,1.70,WUHU216HW,2013-06-17 18:01:00,
2013-06-17 13:06:00,77.4,66.5,28.84,NNE,23,3.4,3.4,69,0.00,,,1.70,WUHU216HW,2013-06-17 18:06:00,
2013-06-17 13:30:00,77.0,67.0,28.83,NNW,338,2.5,2.5,71,0.00,,,1.70,WUHU216HW,2013-06-17 18:30:00,
2013-06-17 13:31:00,77.0,67.0,28.83,NNW,338,2.5,2.5,71,0.00,,,1.70,WUHU216HW,2013-06-17 18:31:00,
2013-06-17 13:36:00,77.0,67.0,28.83,NNW,338,2.5,2.5,71,0.00,,,1.70,WUHU216HW,2013-06-17 18:36:00,
2013-06-17 14:00:00,77.6,67.9,28.83,NE,45,4.9,4.9,72,0.00,,,1.70,WUHU216HW,2013-06-17 19:00:00,
2013-06-17 14:01:00,77.6,67.9,28.83,NE,45,4.9,4.9,72,0.00,,,1.70,WUHU216HW,2013-06-17 19:01:00,
2013-06-17 14:06:00,77.6,67.9,28.83,NE,45,4.9,4.9,72,0.00,,,1.70,WUHU216HW,2013-06-17 19:06:00,
2013-06-17 14:30:00,78.3,67.3,28.82,ESE,113,1.6,1.6,69,0.00,,,1.70,WUHU216HW,2013-06-17 19:30:00,
2013-06-17 14:31:00,78.3,67.3,28.82,ESE,113,1.6,1.6,69,0.00,,,1.70,WUHU216HW,2013-06-17 19:31:00,
2013-06-17 14:36:00,78.3,67.3,28.82,ESE,113,1.6,1.6,69,0.00,,,1.70,WUHU216HW,2013-06-17 19:36:00,
2013-06-17 15:00:00,79.7,67.3,28.82,NNW,338,3.8,3.8,66,0.00,,,1.70,WUHU216HW,2013-06-17 20:00:00,
2013-06-17 15:05:00,79.7,67.3,28.82,NNW,338,3.8,3.8,66,0.00,,,1.70,WUHU216HW,2013-06-17 20:05:00,
2013-06-17 15:30:00,80.6,67.3,28.81,ENE,68,2.9,2.9,64,0.00,,,1.70,WUHU216HW,2013-06-17 20:30:00,
2013-06-17 15:35:00,80.6,67.3,28.81,ENE,68,2.9,2.9,64,0.00,,,1.70,WUHU216HW,2013-06-17 20:35:00,
2013-06-17 16:00:00,81.2,67.8,28.80,NE,45,4.3,4.3,64,0.00,,,1.70,WUHU216HW,2013-06-17 21:00:00,
2013-06-17 16:05:00,81.2,67.8,28.80,NE,45,4.3,4.3,64,0.00,,,1.70,WUHU216HW,2013-06-17 21:05:00,
2013-06-17 16:30:00,81.2,67.8,28.80,ESE,113,1.8,1.8,64,0.02,,,1.70,WUHU216HW,2013-06-17 21:30:00,
2013-06-17 16:35:00,81.2,67.8,28.80,ESE,113,1.8,1.8,64,0.02,,,1.70,WUHU216HW,2013-06-17 21:35:00,
2013-06-17 17:00:00,81.2,66.9,28.79,ENE,68,4.0,4.0,62,0.02,,,1.72,WUHU216HW,2013-06-17 22:00:00,
2013-06-17 17:05:00,81.2,66.9,28.79,ENE,68,4.0,4.0,62,0.02,,,1.72,WUHU216HW,2013-06-17 22:05:00,
2013-06-17 17:30:00,81.7,66.5,28.79,ESE,113,3.6,3.6,60,0.00,,,1.72,WUHU216HW,2013-06-17 22:30:00,
2013-06-17 17:35:00,81.7,66.5,28.79,ESE,113,3.6,3.6,60,0.00,,,1.72,WUHU216HW,2013-06-17 22:35:00,
2013-06-17 18:00:00,81.0,66.3,28.78,NE,45,6.3,6.3,61,0.00,,,1.72,WUHU216HW,2013-06-17 23:00:00,
2013-06-17 18:05:00,81.0,66.3,28.78,NE,45,6.3,6.3,61,0.00,,,1.72,WUHU216HW,2013-06-17 23:05:00,
2013-06-17 18:30:00,81.0,66.8,28.78,SW,225,1.3,1.3,62,0.00,,,1.72,WUHU216HW,2013-06-17 23:30:00,
2013-06-17 18:35:00,81.0,66.8,28.78,SW,225,1.3,1.3,62,0.00,,,1.72,WUHU216HW,2013-06-17 23:35:00,
2013-06-17 19:00:00,80.6,66.9,28.78,ENE,68,5.4,5.4,63,0.00,,,1.72,WUHU216HW,2013-06-18 00:00:00,
2013-06-17 19:05:00,80.6,66.9,28.78,ENE,68,5.4,5.4,63,0.00,,,1.72,WUHU216HW,2013-06-18 00:05:00,
2013-06-17 19:30:00,79.7,66.9,28.78,ESE,113,3.4,3.4,65,0.00,,,1.72,WUHU216HW,2013-06-18 00:30:00,
2013-06-17 19:35:00,79.7,66.9,28.78,ESE,113,3.4,3.4,65,0.00,,,1.72,WUHU216HW,2013-06-18 00:35:00,
2013-06-17 20:00:00,78.5,66.6,28.79,ESE,113,2.2,2.2,67,0.00,,,1.72,WUHU216HW,2013-06-18 01:00:00,
2013-06-17 20:05:00,78.5,66.6,28.79,ESE,113,2.2,2.2,67,0.00,,,1.72,WUHU216HW,2013-06-18 01:05:00,
2013-06-17 20:30:00,76.7,65.8,28.80,East,90,1.6,1.6,69,0.00,,,1.72,WUHU216HW,2013-06-18 01:30:00,
2013-06-17 20:35:00,76.7,65.8,28.80,East,90,1.6,1.6,69,0.00,,,1.72,WUHU216HW,2013-06-18 01:35:00,
2013-06-17 21:00:00,74.7,65.5,28.81,SE,135,0.0,0.0,73,0.00,,,1.72,WUHU216HW,2013-06-18 02:00:00,
2013-06-17 21:05:00,74.7,65.5,28.81,SE,135,0.0,0.0,73,0.00,,,1.72,WUHU216HW,2013-06-18 02:05:00,
2013-06-17 21:30:00,74.2,65.3,28.83,SE,135,0.0,0.0,74,0.03,,,1.72,WUHU216HW,2013-06-18 02:30:00,
2013-06-17 21:35:00,74.2,65.3,28.83,SE,135,0.0,0.0,74,0.03,,,1.72,WUHU216HW,2013-06-18 02:35:00,
2013-06-17 22:00:00,72.7,65.5,28.84,SE,135,0.4,0.4,78,0.03,,,1.75,WUHU216HW,2013-06-18 03:00:00,
2013-06-17 22:05:00,72.7,65.5,28.84,SE,135,0.4,0.4,78,0.03,,,1.75,WUHU216HW,2013-06-18 03:05:00,
2013-06-17 22:30:00,72.0,65.2,28.84,East,90,0.4,0.4,79,0.00,,,1.75,WUHU216HW,2013-06-18 03:30:00,
2013-06-17 22:35:00,72.0,65.2,28.84,East,90,0.4,0.4,79,0.00,,,1.75,WUHU216HW,2013-06-18 03:35:00,
2013-06-17 23:00:00,70.9,65.8,28.85,East,90,0.4,0.4,84,0.00,,,1.75,WUHU216HW,2013-06-18 04:00:00,
2013-06-17 23:01:00,70.9,65.8,28.85,East,90,0.4,0.4,84,0.00,,,1.75,WUHU216HW,2013-06-18 04:01:00,
2013-06-17 23:06:00,70.9,65.8,28.85,East,90,0.4,0.4,84,0.00,,,1.75,WUHU216HW,2013-06-18 04:06:00,
2013-06-17 23:30:00,70.6,65.4,28.85,East,90,0.4,0.4,84,0.00,,,1.75,WUHU216HW,2013-06-18 04:30:00,
2013-06-17 23:35:00,70.6,65.4,28.85,East,90,0.4,0.4,84,0.00,,,1.75,WUHU216HW,2013-06-18 04:35:00,